sensor_id;sensor_type;location;lat;lon;timestamp;P1;durP1;ratioP1;P2;durP2;ratioP2
46897;SDS011;32646;50.958;6.258;2023-05-09T00:00:41;31.73;;;13.30;;
46897;SDS011;32646;50.958;6.258;2023-05-09T00:03:08;35.70;;;15.15;;
46897;SDS011;32646;50.958;6.258;2023-05-09T00:05:35;37.08;;;14.57;;
46897;SDS011;32646;50.958;6.258;2023-05-09T00:08:01;41.40;;;16.65;;
46897;SDS011;32646;50.958;6.258;2023-05-09T00:10:28;37.38;;;15.77;;
46897;SDS011;32646;50.958;6.258;2023-05-09T00:12:55;39.22;;;15.60;;
46897;SDS011;32646;50.958;6.258;2023-05-09T00:15:21;31.52;;;15.00;;
46897;SDS011;32646;50.958;6.258;2023-05-09T00:17:48;42.92;;;15.98;;
46897;SDS011;32646;50.958;6.258;2023-05-09T00:20:14;32.72;;;14.35;;
46897;SDS011;32646;50.958;6.258;2023-05-09T00:22:55;40.00;;;14.85;;
46897;SDS011;32646;50.958;6.258;2023-05-09T00:25:22;36.30;;;15.32;;
46897;SDS011;32646;50.958;6.258;2023-05-09T00:27:48;36.10;;;15.45;;
46897;SDS011;32646;50.958;6.258;2023-05-09T00:30:15;32.72;;;14.35;;
46897;SDS011;32646;50.958;6.258;2023-05-09T00:32:41;36.22;;;15.10;;
46897;SDS011;32646;50.958;6.258;2023-05-09T00:35:08;38.47;;;15.32;;
46897;SDS011;32646;50.958;6.258;2023-05-09T00:37:35;35.88;;;15.85;;
46897;SDS011;32646;50.958;6.258;2023-05-09T00:40:02;37.00;;;16.02;;
46897;SDS011;32646;50.958;6.258;2023-05-09T00:42:29;38.97;;;15.65;;
46897;SDS011;32646;50.958;6.258;2023-05-09T00:44:56;35.70;;;15.90;;
46897;SDS011;32646;50.958;6.258;2023-05-09T00:47:23;40.47;;;16.30;;
46897;SDS011;32646;50.958;6.258;2023-05-09T00:49:49;42.30;;;15.63;;
46897;SDS011;32646;50.958;6.258;2023-05-09T00:52:16;40.55;;;15.27;;
46897;SDS011;32646;50.958;6.258;2023-05-09T00:54:42;35.15;;;14.88;;
46897;SDS011;32646;50.958;6.258;2023-05-09T00:57:09;36.63;;;15.25;;
46897;SDS011;32646;50.958;6.258;2023-05-09T00:59:36;38.95;;;15.20;;
46897;SDS011;32646;50.958;6.258;2023-05-09T01:02:02;36.88;;;15.88;;
46897;SDS011;32646;50.958;6.258;2023-05-09T01:04:29;37.08;;;14.93;;
46897;SDS011;32646;50.958;6.258;2023-05-09T01:09:42;34.60;;;14.77;;
46897;SDS011;32646;50.958;6.258;2023-05-09T01:15:34;36.20;;;14.45;;
46897;SDS011;32646;50.958;6.258;2023-05-09T01:18:08;33.70;;;14.65;;
46897;SDS011;32646;50.958;6.258;2023-05-09T01:20:46;39.60;;;16.58;;
46897;SDS011;32646;50.958;6.258;2023-05-09T01:29:36;34.47;;;14.20;;
46897;SDS011;32646;50.958;6.258;2023-05-09T01:32:11;31.55;;;14.30;;
46897;SDS011;32646;50.958;6.258;2023-05-09T01:34:53;31.67;;;13.93;;
46897;SDS011;32646;50.958;6.258;2023-05-09T01:37:23;34.97;;;15.15;;
46897;SDS011;32646;50.958;6.258;2023-05-09T01:40:09;29.40;;;13.80;;
46897;SDS011;32646;50.958;6.258;2023-05-09T01:42:43;33.28;;;14.35;;
46897;SDS011;32646;50.958;6.258;2023-05-09T01:45:15;31.63;;;15.30;;
46897;SDS011;32646;50.958;6.258;2023-05-09T01:47:42;29.85;;;15.27;;
46897;SDS011;32646;50.958;6.258;2023-05-09T01:50:10;32.35;;;13.80;;
46897;SDS011;32646;50.958;6.258;2023-05-09T01:52:37;35.35;;;14.10;;
46897;SDS011;32646;50.958;6.258;2023-05-09T01:55:05;34.72;;;14.82;;
46897;SDS011;32646;50.958;6.258;2023-05-09T01:57:34;31.15;;;13.50;;
46897;SDS011;32646;50.958;6.258;2023-05-09T02:00:01;40.30;;;14.60;;
46897;SDS011;32646;50.958;6.258;2023-05-09T02:02:29;30.55;;;14.50;;
46897;SDS011;32646;50.958;6.258;2023-05-09T02:04:56;32.70;;;14.48;;
46897;SDS011;32646;50.958;6.258;2023-05-09T02:07:24;32.75;;;14.65;;
46897;SDS011;32646;50.958;6.258;2023-05-09T02:09:53;33.55;;;14.23;;
46897;SDS011;32646;50.958;6.258;2023-05-09T02:12:22;30.80;;;14.15;;
46897;SDS011;32646;50.958;6.258;2023-05-09T02:14:49;31.83;;;14.45;;
46897;SDS011;32646;50.958;6.258;2023-05-09T02:17:16;29.70;;;13.77;;
46897;SDS011;32646;50.958;6.258;2023-05-09T02:19:42;30.55;;;14.10;;
46897;SDS011;32646;50.958;6.258;2023-05-09T02:22:09;33.55;;;14.70;;
46897;SDS011;32646;50.958;6.258;2023-05-09T02:24:37;32.20;;;14.88;;
46897;SDS011;32646;50.958;6.258;2023-05-09T02:27:04;31.63;;;14.27;;
46897;SDS011;32646;50.958;6.258;2023-05-09T02:29:34;32.22;;;14.07;;
46897;SDS011;32646;50.958;6.258;2023-05-09T02:32:06;36.97;;;15.43;;
46897;SDS011;32646;50.958;6.258;2023-05-09T02:34:39;34.03;;;15.07;;
46897;SDS011;32646;50.958;6.258;2023-05-09T02:37:06;37.65;;;16.27;;
46897;SDS011;32646;50.958;6.258;2023-05-09T02:39:35;35.40;;;14.30;;
46897;SDS011;32646;50.958;6.258;2023-05-09T02:42:04;30.27;;;14.35;;
46897;SDS011;32646;50.958;6.258;2023-05-09T02:46:58;37.78;;;15.43;;
46897;SDS011;32646;50.958;6.258;2023-05-09T02:49:24;35.33;;;16.20;;
46897;SDS011;32646;50.958;6.258;2023-05-09T02:51:57;34.45;;;14.07;;
46897;SDS011;32646;50.958;6.258;2023-05-09T02:54:24;36.70;;;14.82;;
46897;SDS011;32646;50.958;6.258;2023-05-09T02:56:51;34.70;;;14.57;;
46897;SDS011;32646;50.958;6.258;2023-05-09T02:59:17;32.42;;;14.43;;
46897;SDS011;32646;50.958;6.258;2023-05-09T03:01:44;36.58;;;14.90;;
46897;SDS011;32646;50.958;6.258;2023-05-09T03:04:11;34.60;;;14.90;;
46897;SDS011;32646;50.958;6.258;2023-05-09T03:06:38;35.50;;;14.40;;
46897;SDS011;32646;50.958;6.258;2023-05-09T03:09:04;31.67;;;14.77;;
46897;SDS011;32646;50.958;6.258;2023-05-09T03:11:31;32.03;;;13.93;;
46897;SDS011;32646;50.958;6.258;2023-05-09T03:13:57;35.47;;;15.30;;
46897;SDS011;32646;50.958;6.258;2023-05-09T03:16:24;35.58;;;15.88;;
46897;SDS011;32646;50.958;6.258;2023-05-09T03:18:50;39.17;;;15.75;;
46897;SDS011;32646;50.958;6.258;2023-05-09T03:21:17;37.15;;;15.25;;
46897;SDS011;32646;50.958;6.258;2023-05-09T03:23:43;36.10;;;15.10;;
46897;SDS011;32646;50.958;6.258;2023-05-09T03:26:10;42.47;;;16.88;;
46897;SDS011;32646;50.958;6.258;2023-05-09T03:28:37;38.33;;;15.88;;
46897;SDS011;32646;50.958;6.258;2023-05-09T03:31:03;36.03;;;14.35;;
46897;SDS011;32646;50.958;6.258;2023-05-09T03:33:30;35.90;;;16.83;;
46897;SDS011;32646;50.958;6.258;2023-05-09T03:35:57;35.50;;;15.10;;
46897;SDS011;32646;50.958;6.258;2023-05-09T03:38:23;36.85;;;15.15;;
46897;SDS011;32646;50.958;6.258;2023-05-09T03:40:50;40.05;;;16.67;;
46897;SDS011;32646;50.958;6.258;2023-05-09T03:43:18;37.65;;;15.48;;
46897;SDS011;32646;50.958;6.258;2023-05-09T03:45:44;37.45;;;15.18;;
46897;SDS011;32646;50.958;6.258;2023-05-09T03:48:11;41.08;;;15.45;;
46897;SDS011;32646;50.958;6.258;2023-05-09T03:50:37;41.65;;;16.35;;
46897;SDS011;32646;50.958;6.258;2023-05-09T03:53:04;44.75;;;17.48;;
46897;SDS011;32646;50.958;6.258;2023-05-09T03:55:31;50.40;;;16.85;;
46897;SDS011;32646;50.958;6.258;2023-05-09T03:57:57;49.78;;;17.90;;
46897;SDS011;32646;50.958;6.258;2023-05-09T04:00:24;48.05;;;17.80;;
46897;SDS011;32646;50.958;6.258;2023-05-09T04:02:50;48.92;;;18.15;;
46897;SDS011;32646;50.958;6.258;2023-05-09T04:05:17;49.05;;;17.90;;
46897;SDS011;32646;50.958;6.258;2023-05-09T04:07:44;54.00;;;18.05;;
46897;SDS011;32646;50.958;6.258;2023-05-09T04:10:10;41.17;;;17.40;;
46897;SDS011;32646;50.958;6.258;2023-05-09T04:12:37;45.08;;;16.48;;
46897;SDS011;32646;50.958;6.258;2023-05-09T04:15:04;44.85;;;18.00;;
46897;SDS011;32646;50.958;6.258;2023-05-09T04:17:31;44.63;;;17.58;;
46897;SDS011;32646;50.958;6.258;2023-05-09T04:19:58;45.20;;;17.58;;
46897;SDS011;32646;50.958;6.258;2023-05-09T04:22:24;44.00;;;18.50;;
46897;SDS011;32646;50.958;6.258;2023-05-09T04:24:51;48.22;;;17.25;;
46897;SDS011;32646;50.958;6.258;2023-05-09T04:27:17;45.75;;;16.92;;
46897;SDS011;32646;50.958;6.258;2023-05-09T04:29:44;43.15;;;15.65;;
46897;SDS011;32646;50.958;6.258;2023-05-09T04:32:11;45.08;;;15.75;;
46897;SDS011;32646;50.958;6.258;2023-05-09T04:34:37;48.28;;;16.20;;
46897;SDS011;32646;50.958;6.258;2023-05-09T04:37:04;39.85;;;16.15;;
46897;SDS011;32646;50.958;6.258;2023-05-09T04:39:30;42.05;;;16.85;;
46897;SDS011;32646;50.958;6.258;2023-05-09T04:41:57;39.53;;;14.85;;
46897;SDS011;32646;50.958;6.258;2023-05-09T04:44:24;34.47;;;15.25;;
46897;SDS011;32646;50.958;6.258;2023-05-09T04:46:50;41.05;;;16.88;;
46897;SDS011;32646;50.958;6.258;2023-05-09T04:49:17;41.78;;;16.42;;
46897;SDS011;32646;50.958;6.258;2023-05-09T04:51:43;38.65;;;16.90;;
46897;SDS011;32646;50.958;6.258;2023-05-09T04:54:10;33.20;;;14.93;;
46897;SDS011;32646;50.958;6.258;2023-05-09T04:56:36;38.42;;;16.20;;
46897;SDS011;32646;50.958;6.258;2023-05-09T04:59:03;40.95;;;16.27;;
46897;SDS011;32646;50.958;6.258;2023-05-09T05:01:29;41.13;;;16.40;;
46897;SDS011;32646;50.958;6.258;2023-05-09T05:03:56;37.10;;;15.98;;
46897;SDS011;32646;50.958;6.258;2023-05-09T05:06:23;36.25;;;16.55;;
46897;SDS011;32646;50.958;6.258;2023-05-09T05:08:49;40.00;;;16.80;;
46897;SDS011;32646;50.958;6.258;2023-05-09T05:11:16;37.25;;;16.95;;
46897;SDS011;32646;50.958;6.258;2023-05-09T05:13:43;44.78;;;16.67;;
46897;SDS011;32646;50.958;6.258;2023-05-09T05:16:09;38.95;;;16.20;;
46897;SDS011;32646;50.958;6.258;2023-05-09T05:18:36;38.97;;;18.20;;
46897;SDS011;32646;50.958;6.258;2023-05-09T05:21:02;42.67;;;16.67;;
46897;SDS011;32646;50.958;6.258;2023-05-09T05:23:29;39.13;;;16.48;;
46897;SDS011;32646;50.958;6.258;2023-05-09T05:25:55;39.53;;;15.98;;
46897;SDS011;32646;50.958;6.258;2023-05-09T05:28:22;40.00;;;17.70;;
46897;SDS011;32646;50.958;6.258;2023-05-09T05:30:49;44.22;;;18.15;;
46897;SDS011;32646;50.958;6.258;2023-05-09T05:33:15;42.40;;;18.30;;
46897;SDS011;32646;50.958;6.258;2023-05-09T05:35:42;44.40;;;17.75;;
46897;SDS011;32646;50.958;6.258;2023-05-09T05:38:08;44.35;;;18.92;;
46897;SDS011;32646;50.958;6.258;2023-05-09T05:40:35;36.25;;;15.75;;
46897;SDS011;32646;50.958;6.258;2023-05-09T05:43:01;40.70;;;17.77;;
46897;SDS011;32646;50.958;6.258;2023-05-09T05:45:28;41.65;;;17.23;;
46897;SDS011;32646;50.958;6.258;2023-05-09T05:47:54;36.97;;;16.08;;
46897;SDS011;32646;50.958;6.258;2023-05-09T05:50:21;37.00;;;17.17;;
46897;SDS011;32646;50.958;6.258;2023-05-09T05:52:48;35.88;;;16.45;;
46897;SDS011;32646;50.958;6.258;2023-05-09T05:55:14;35.47;;;16.30;;
46897;SDS011;32646;50.958;6.258;2023-05-09T05:57:41;38.42;;;15.98;;
46897;SDS011;32646;50.958;6.258;2023-05-09T06:00:08;41.00;;;16.33;;
46897;SDS011;32646;50.958;6.258;2023-05-09T06:02:35;35.70;;;14.85;;
46897;SDS011;32646;50.958;6.258;2023-05-09T06:05:02;33.10;;;15.13;;
46897;SDS011;32646;50.958;6.258;2023-05-09T06:07:29;33.53;;;15.40;;
46897;SDS011;32646;50.958;6.258;2023-05-09T06:09:55;35.55;;;16.75;;
46897;SDS011;32646;50.958;6.258;2023-05-09T06:12:22;33.63;;;14.40;;
46897;SDS011;32646;50.958;6.258;2023-05-09T06:14:50;29.98;;;14.18;;
46897;SDS011;32646;50.958;6.258;2023-05-09T06:17:16;31.38;;;13.30;;
46897;SDS011;32646;50.958;6.258;2023-05-09T06:19:43;33.33;;;15.52;;
46897;SDS011;32646;50.958;6.258;2023-05-09T06:22:10;32.38;;;15.07;;
46897;SDS011;32646;50.958;6.258;2023-05-09T06:24:36;31.58;;;15.50;;
46897;SDS011;32646;50.958;6.258;2023-05-09T06:27:03;29.98;;;14.88;;
46897;SDS011;32646;50.958;6.258;2023-05-09T06:29:29;33.95;;;14.52;;
46897;SDS011;32646;50.958;6.258;2023-05-09T06:31:56;30.83;;;15.10;;
46897;SDS011;32646;50.958;6.258;2023-05-09T06:34:23;31.38;;;14.77;;
46897;SDS011;32646;50.958;6.258;2023-05-09T06:36:49;31.92;;;14.73;;
46897;SDS011;32646;50.958;6.258;2023-05-09T06:39:16;30.70;;;13.65;;
46897;SDS011;32646;50.958;6.258;2023-05-09T06:41:42;29.80;;;15.18;;
46897;SDS011;32646;50.958;6.258;2023-05-09T06:44:09;29.90;;;14.25;;
46897;SDS011;32646;50.958;6.258;2023-05-09T06:46:35;29.67;;;14.80;;
46897;SDS011;32646;50.958;6.258;2023-05-09T06:49:02;27.30;;;13.35;;
46897;SDS011;32646;50.958;6.258;2023-05-09T06:51:28;27.98;;;12.93;;
46897;SDS011;32646;50.958;6.258;2023-05-09T06:53:55;26.98;;;13.15;;
46897;SDS011;32646;50.958;6.258;2023-05-09T06:56:21;26.58;;;13.32;;
46897;SDS011;32646;50.958;6.258;2023-05-09T06:58:48;27.90;;;13.40;;
46897;SDS011;32646;50.958;6.258;2023-05-09T07:01:14;25.33;;;12.45;;
46897;SDS011;32646;50.958;6.258;2023-05-09T07:03:41;25.40;;;14.13;;
46897;SDS011;32646;50.958;6.258;2023-05-09T07:06:08;24.38;;;11.30;;
46897;SDS011;32646;50.958;6.258;2023-05-09T07:08:34;24.38;;;12.20;;
46897;SDS011;32646;50.958;6.258;2023-05-09T07:11:01;21.05;;;11.75;;
46897;SDS011;32646;50.958;6.258;2023-05-09T07:13:28;21.98;;;11.35;;
46897;SDS011;32646;50.958;6.258;2023-05-09T07:15:54;21.40;;;9.95;;
46897;SDS011;32646;50.958;6.258;2023-05-09T07:18:21;20.10;;;9.50;;
46897;SDS011;32646;50.958;6.258;2023-05-09T07:20:47;20.30;;;9.57;;
46897;SDS011;32646;50.958;6.258;2023-05-09T07:23:14;18.27;;;8.85;;
46897;SDS011;32646;50.958;6.258;2023-05-09T07:25:40;15.23;;;8.85;;
46897;SDS011;32646;50.958;6.258;2023-05-09T07:28:07;16.90;;;8.82;;
46897;SDS011;32646;50.958;6.258;2023-05-09T07:30:33;16.42;;;8.25;;
46897;SDS011;32646;50.958;6.258;2023-05-09T07:33:00;14.35;;;8.00;;
46897;SDS011;32646;50.958;6.258;2023-05-09T07:35:27;14.18;;;7.60;;
46897;SDS011;32646;50.958;6.258;2023-05-09T07:37:53;17.35;;;8.38;;
46897;SDS011;32646;50.958;6.258;2023-05-09T07:40:20;16.20;;;8.00;;
46897;SDS011;32646;50.958;6.258;2023-05-09T07:42:46;14.02;;;7.50;;
46897;SDS011;32646;50.958;6.258;2023-05-09T07:45:13;13.15;;;6.78;;
46897;SDS011;32646;50.958;6.258;2023-05-09T07:47:40;14.70;;;7.28;;
46897;SDS011;32646;50.958;6.258;2023-05-09T07:50:06;14.20;;;7.20;;
46897;SDS011;32646;50.958;6.258;2023-05-09T07:52:33;12.68;;;7.25;;
46897;SDS011;32646;50.958;6.258;2023-05-09T07:55:00;14.10;;;7.07;;
46897;SDS011;32646;50.958;6.258;2023-05-09T07:57:26;12.45;;;7.55;;
46897;SDS011;32646;50.958;6.258;2023-05-09T07:59:53;13.52;;;6.43;;
46897;SDS011;32646;50.958;6.258;2023-05-09T08:02:19;14.32;;;6.25;;
46897;SDS011;32646;50.958;6.258;2023-05-09T08:04:46;12.10;;;5.95;;
46897;SDS011;32646;50.958;6.258;2023-05-09T08:07:13;8.80;;;4.72;;
46897;SDS011;32646;50.958;6.258;2023-05-09T08:09:39;8.20;;;5.07;;
46897;SDS011;32646;50.958;6.258;2023-05-09T08:12:06;8.48;;;4.85;;
46897;SDS011;32646;50.958;6.258;2023-05-09T08:14:33;8.48;;;4.75;;
46897;SDS011;32646;50.958;6.258;2023-05-09T08:16:59;9.60;;;5.53;;
46897;SDS011;32646;50.958;6.258;2023-05-09T08:19:26;11.10;;;5.53;;
46897;SDS011;32646;50.958;6.258;2023-05-09T08:21:52;10.05;;;5.30;;
46897;SDS011;32646;50.958;6.258;2023-05-09T08:24:19;9.77;;;5.10;;
46897;SDS011;32646;50.958;6.258;2023-05-09T08:26:45;8.50;;;4.85;;
46897;SDS011;32646;50.958;6.258;2023-05-09T08:29:12;9.20;;;4.78;;
46897;SDS011;32646;50.958;6.258;2023-05-09T08:31:39;8.07;;;4.35;;
46897;SDS011;32646;50.958;6.258;2023-05-09T08:34:05;8.38;;;4.93;;
46897;SDS011;32646;50.958;6.258;2023-05-09T08:36:32;9.40;;;4.55;;
46897;SDS011;32646;50.958;6.258;2023-05-09T08:38:58;7.25;;;4.38;;
46897;SDS011;32646;50.958;6.258;2023-05-09T08:41:25;14.38;;;5.22;;
46897;SDS011;32646;50.958;6.258;2023-05-09T08:43:52;8.20;;;4.95;;
46897;SDS011;32646;50.958;6.258;2023-05-09T08:46:21;7.55;;;4.80;;
46897;SDS011;32646;50.958;6.258;2023-05-09T08:48:53;7.93;;;4.65;;
46897;SDS011;32646;50.958;6.258;2023-05-09T08:51:20;8.52;;;5.47;;
46897;SDS011;32646;50.958;6.258;2023-05-09T08:53:47;6.72;;;4.25;;
46897;SDS011;32646;50.958;6.258;2023-05-09T08:56:13;8.48;;;4.53;;
46897;SDS011;32646;50.958;6.258;2023-05-09T08:58:40;7.32;;;3.67;;
46897;SDS011;32646;50.958;6.258;2023-05-09T09:01:07;6.35;;;3.45;;
46897;SDS011;32646;50.958;6.258;2023-05-09T09:03:35;8.63;;;3.65;;
46897;SDS011;32646;50.958;6.258;2023-05-09T09:06:02;5.90;;;3.35;;
46897;SDS011;32646;50.958;6.258;2023-05-09T09:08:32;6.28;;;3.22;;
46897;SDS011;32646;50.958;6.258;2023-05-09T09:11:00;6.15;;;3.25;;
46897;SDS011;32646;50.958;6.258;2023-05-09T09:13:27;5.65;;;3.00;;
46897;SDS011;32646;50.958;6.258;2023-05-09T09:15:54;7.13;;;3.17;;
46897;SDS011;32646;50.958;6.258;2023-05-09T09:18:27;6.10;;;2.97;;
46897;SDS011;32646;50.958;6.258;2023-05-09T09:20:55;5.80;;;3.40;;
46897;SDS011;32646;50.958;6.258;2023-05-09T09:23:25;6.13;;;3.38;;
46897;SDS011;32646;50.958;6.258;2023-05-09T09:26:00;4.72;;;2.95;;
46897;SDS011;32646;50.958;6.258;2023-05-09T09:28:27;7.13;;;3.22;;
46897;SDS011;32646;50.958;6.258;2023-05-09T09:30:54;5.82;;;3.75;;
46897;SDS011;32646;50.958;6.258;2023-05-09T09:33:22;6.97;;;3.17;;
46897;SDS011;32646;50.958;6.258;2023-05-09T09:35:50;6.57;;;3.13;;
46897;SDS011;32646;50.958;6.258;2023-05-09T09:38:19;5.53;;;2.90;;
46897;SDS011;32646;50.958;6.258;2023-05-09T09:40:53;6.40;;;3.40;;
46897;SDS011;32646;50.958;6.258;2023-05-09T09:43:27;7.25;;;3.35;;
46897;SDS011;32646;50.958;6.258;2023-05-09T09:45:54;7.00;;;3.63;;
46897;SDS011;32646;50.958;6.258;2023-05-09T09:48:25;6.25;;;3.40;;
46897;SDS011;32646;50.958;6.258;2023-05-09T09:50:53;5.78;;;3.45;;
46897;SDS011;32646;50.958;6.258;2023-05-09T09:53:20;5.53;;;3.35;;
46897;SDS011;32646;50.958;6.258;2023-05-09T09:55:48;7.75;;;4.00;;
46897;SDS011;32646;50.958;6.258;2023-05-09T09:58:16;6.55;;;3.90;;
46897;SDS011;32646;50.958;6.258;2023-05-09T10:00:43;7.25;;;3.75;;
46897;SDS011;32646;50.958;6.258;2023-05-09T10:03:13;7.07;;;3.70;;
46897;SDS011;32646;50.958;6.258;2023-05-09T10:05:40;5.93;;;4.13;;
46897;SDS011;32646;50.958;6.258;2023-05-09T10:08:07;6.50;;;3.75;;
46897;SDS011;32646;50.958;6.258;2023-05-09T10:10:34;6.32;;;4.00;;
46897;SDS011;32646;50.958;6.258;2023-05-09T10:13:03;6.43;;;4.28;;
46897;SDS011;32646;50.958;6.258;2023-05-09T10:15:35;8.02;;;4.03;;
46897;SDS011;32646;50.958;6.258;2023-05-09T10:18:17;7.72;;;3.63;;
46897;SDS011;32646;50.958;6.258;2023-05-09T10:20:52;6.85;;;3.88;;
46897;SDS011;32646;50.958;6.258;2023-05-09T10:23:21;8.23;;;3.95;;
46897;SDS011;32646;50.958;6.258;2023-05-09T10:26:22;7.45;;;3.78;;
46897;SDS011;32646;50.958;6.258;2023-05-09T10:28:47;5.40;;;3.60;;
46897;SDS011;32646;50.958;6.258;2023-05-09T10:31:22;4.72;;;2.72;;
46897;SDS011;32646;50.958;6.258;2023-05-09T10:33:51;5.38;;;2.53;;
46897;SDS011;32646;50.958;6.258;2023-05-09T10:36:19;6.80;;;3.58;;
46897;SDS011;32646;50.958;6.258;2023-05-09T10:38:50;6.63;;;3.47;;
46897;SDS011;32646;50.958;6.258;2023-05-09T10:41:19;6.38;;;3.30;;
46897;SDS011;32646;50.958;6.258;2023-05-09T10:43:46;6.50;;;3.22;;
46897;SDS011;32646;50.958;6.258;2023-05-09T10:46:13;8.35;;;3.30;;
46897;SDS011;32646;50.958;6.258;2023-05-09T10:48:40;5.13;;;2.15;;
46897;SDS011;32646;50.958;6.258;2023-05-09T10:51:08;5.18;;;2.80;;
46897;SDS011;32646;50.958;6.258;2023-05-09T10:53:39;5.18;;;2.92;;
46897;SDS011;32646;50.958;6.258;2023-05-09T10:56:06;5.43;;;3.10;;
46897;SDS011;32646;50.958;6.258;2023-05-09T10:58:33;6.95;;;2.90;;
46897;SDS011;32646;50.958;6.258;2023-05-09T11:01:00;5.20;;;2.85;;
46897;SDS011;32646;50.958;6.258;2023-05-09T11:03:28;5.50;;;2.95;;
46897;SDS011;32646;50.958;6.258;2023-05-09T11:09:22;5.55;;;3.10;;
46897;SDS011;32646;50.958;6.258;2023-05-09T11:11:50;6.28;;;2.90;;
46897;SDS011;32646;50.958;6.258;2023-05-09T11:14:27;4.65;;;2.80;;
46897;SDS011;32646;50.958;6.258;2023-05-09T11:16:55;6.32;;;3.60;;
46897;SDS011;32646;50.958;6.258;2023-05-09T11:22:15;9.70;;;5.95;;
46897;SDS011;32646;50.958;6.258;2023-05-09T11:24:46;8.43;;;5.13;;
46897;SDS011;32646;50.958;6.258;2023-05-09T11:27:20;9.10;;;5.30;;
46897;SDS011;32646;50.958;6.258;2023-05-09T11:29:53;12.07;;;5.80;;
46897;SDS011;32646;50.958;6.258;2023-05-09T11:32:21;7.95;;;4.78;;
46897;SDS011;32646;50.958;6.258;2023-05-09T11:35:09;10.52;;;5.47;;
46897;SDS011;32646;50.958;6.258;2023-05-09T11:37:48;11.73;;;5.85;;
46897;SDS011;32646;50.958;6.258;2023-05-09T11:40:18;10.60;;;6.25;;
46897;SDS011;32646;50.958;6.258;2023-05-09T11:42:47;9.82;;;6.38;;
46897;SDS011;32646;50.958;6.258;2023-05-09T11:45:15;10.98;;;6.65;;
46897;SDS011;32646;50.958;6.258;2023-05-09T11:47:42;10.13;;;6.70;;
46897;SDS011;32646;50.958;6.258;2023-05-09T11:50:11;13.27;;;7.47;;
46897;SDS011;32646;50.958;6.258;2023-05-09T11:52:39;13.85;;;8.02;;
46897;SDS011;32646;50.958;6.258;2023-05-09T11:55:06;12.27;;;6.93;;
46897;SDS011;32646;50.958;6.258;2023-05-09T11:57:44;11.75;;;7.20;;
46897;SDS011;32646;50.958;6.258;2023-05-09T12:00:17;13.07;;;6.72;;
46897;SDS011;32646;50.958;6.258;2023-05-09T12:02:47;9.88;;;6.72;;
46897;SDS011;32646;50.958;6.258;2023-05-09T12:05:16;9.90;;;6.47;;
46897;SDS011;32646;50.958;6.258;2023-05-09T12:07:44;9.98;;;6.47;;
46897;SDS011;32646;50.958;6.258;2023-05-09T12:10:12;11.23;;;6.30;;
46897;SDS011;32646;50.958;6.258;2023-05-09T12:12:46;11.15;;;6.57;;
46897;SDS011;32646;50.958;6.258;2023-05-09T12:15:17;11.48;;;5.95;;
46897;SDS011;32646;50.958;6.258;2023-05-09T12:17:46;9.88;;;4.97;;
46897;SDS011;32646;50.958;6.258;2023-05-09T12:20:17;7.85;;;5.10;;
46897;SDS011;32646;50.958;6.258;2023-05-09T12:22:43;7.53;;;4.78;;
46897;SDS011;32646;50.958;6.258;2023-05-09T12:25:10;10.13;;;4.90;;
46897;SDS011;32646;50.958;6.258;2023-05-09T12:27:38;9.10;;;5.18;;
46897;SDS011;32646;50.958;6.258;2023-05-09T12:30:06;7.25;;;4.68;;
46897;SDS011;32646;50.958;6.258;2023-05-09T12:32:34;7.38;;;4.40;;
46897;SDS011;32646;50.958;6.258;2023-05-09T12:35:01;8.55;;;4.72;;
46897;SDS011;32646;50.958;6.258;2023-05-09T12:37:29;7.05;;;4.63;;
46897;SDS011;32646;50.958;6.258;2023-05-09T12:40:00;7.97;;;5.30;;
46897;SDS011;32646;50.958;6.258;2023-05-09T12:42:36;7.45;;;4.68;;
46897;SDS011;32646;50.958;6.258;2023-05-09T12:45:06;8.55;;;5.47;;
46897;SDS011;32646;50.958;6.258;2023-05-09T12:47:34;8.82;;;4.82;;
46897;SDS011;32646;50.958;6.258;2023-05-09T12:50:01;7.97;;;5.05;;
46897;SDS011;32646;50.958;6.258;2023-05-09T12:52:32;8.40;;;5.28;;
46897;SDS011;32646;50.958;6.258;2023-05-09T12:55:04;8.68;;;5.43;;
46897;SDS011;32646;50.958;6.258;2023-05-09T12:57:31;7.50;;;5.18;;
46897;SDS011;32646;50.958;6.258;2023-05-09T12:59:59;8.93;;;5.63;;
46897;SDS011;32646;50.958;6.258;2023-05-09T13:02:27;10.38;;;5.25;;
46897;SDS011;32646;50.958;6.258;2023-05-09T13:05:12;8.65;;;5.20;;
46897;SDS011;32646;50.958;6.258;2023-05-09T13:07:47;9.50;;;5.05;;
46897;SDS011;32646;50.958;6.258;2023-05-09T13:10:15;10.60;;;5.20;;
46897;SDS011;32646;50.958;6.258;2023-05-09T13:12:43;8.07;;;4.75;;
46897;SDS011;32646;50.958;6.258;2023-05-09T13:15:10;8.23;;;4.72;;
46897;SDS011;32646;50.958;6.258;2023-05-09T13:17:37;10.50;;;5.40;;
46897;SDS011;32646;50.958;6.258;2023-05-09T13:20:04;5.97;;;3.83;;
46897;SDS011;32646;50.958;6.258;2023-05-09T13:22:31;6.47;;;4.00;;
46897;SDS011;32646;50.958;6.258;2023-05-09T13:24:58;5.55;;;3.40;;
46897;SDS011;32646;50.958;6.258;2023-05-09T13:27:25;6.72;;;3.80;;
46897;SDS011;32646;50.958;6.258;2023-05-09T13:29:52;6.70;;;2.97;;
46897;SDS011;32646;50.958;6.258;2023-05-09T13:32:19;5.68;;;2.80;;
46897;SDS011;32646;50.958;6.258;2023-05-09T13:34:47;5.20;;;2.60;;
46897;SDS011;32646;50.958;6.258;2023-05-09T13:37:13;6.55;;;3.40;;
46897;SDS011;32646;50.958;6.258;2023-05-09T13:39:40;7.45;;;3.60;;
46897;SDS011;32646;50.958;6.258;2023-05-09T13:42:06;6.38;;;3.15;;
46897;SDS011;32646;50.958;6.258;2023-05-09T13:44:33;5.50;;;2.65;;
46897;SDS011;32646;50.958;6.258;2023-05-09T13:46:59;6.32;;;3.47;;
46897;SDS011;32646;50.958;6.258;2023-05-09T13:49:26;5.55;;;3.40;;
46897;SDS011;32646;50.958;6.258;2023-05-09T13:51:53;5.70;;;3.05;;
46897;SDS011;32646;50.958;6.258;2023-05-09T13:54:20;5.68;;;3.17;;
46897;SDS011;32646;50.958;6.258;2023-05-09T13:56:46;5.80;;;3.55;;
46897;SDS011;32646;50.958;6.258;2023-05-09T13:59:13;7.10;;;4.03;;
46897;SDS011;32646;50.958;6.258;2023-05-09T14:01:40;8.77;;;3.90;;
46897;SDS011;32646;50.958;6.258;2023-05-09T14:04:06;7.60;;;4.05;;
46897;SDS011;32646;50.958;6.258;2023-05-09T14:06:33;6.75;;;3.90;;
46897;SDS011;32646;50.958;6.258;2023-05-09T14:09:00;6.20;;;3.70;;
46897;SDS011;32646;50.958;6.258;2023-05-09T14:11:27;7.57;;;3.78;;
46897;SDS011;32646;50.958;6.258;2023-05-09T14:13:53;7.65;;;3.75;;
46897;SDS011;32646;50.958;6.258;2023-05-09T14:16:20;6.78;;;3.58;;
46897;SDS011;32646;50.958;6.258;2023-05-09T14:18:46;6.47;;;4.03;;
46897;SDS011;32646;50.958;6.258;2023-05-09T14:21:13;7.35;;;4.43;;
46897;SDS011;32646;50.958;6.258;2023-05-09T14:23:40;7.25;;;3.58;;
46897;SDS011;32646;50.958;6.258;2023-05-09T14:26:07;7.80;;;3.97;;
46897;SDS011;32646;50.958;6.258;2023-05-09T14:28:33;7.43;;;3.85;;
46897;SDS011;32646;50.958;6.258;2023-05-09T14:31:00;7.20;;;3.85;;
46897;SDS011;32646;50.958;6.258;2023-05-09T14:33:26;7.03;;;4.05;;
46897;SDS011;32646;50.958;6.258;2023-05-09T14:35:53;7.13;;;4.45;;
46897;SDS011;32646;50.958;6.258;2023-05-09T14:38:20;7.22;;;4.18;;
46897;SDS011;32646;50.958;6.258;2023-05-09T14:40:46;7.28;;;4.20;;
46897;SDS011;32646;50.958;6.258;2023-05-09T14:43:13;9.00;;;4.68;;
46897;SDS011;32646;50.958;6.258;2023-05-09T14:45:39;7.88;;;4.72;;
46897;SDS011;32646;50.958;6.258;2023-05-09T14:48:06;8.20;;;4.30;;
46897;SDS011;32646;50.958;6.258;2023-05-09T14:50:32;9.38;;;4.43;;
46897;SDS011;32646;50.958;6.258;2023-05-09T14:52:59;9.02;;;4.85;;
46897;SDS011;32646;50.958;6.258;2023-05-09T14:55:26;10.23;;;4.80;;
46897;SDS011;32646;50.958;6.258;2023-05-09T14:57:52;8.73;;;4.53;;